Los Angeles, Argentina
Current Conditions -  °F | °C
As of 9:00 PM on Friday 24 Oct 2014 (Local Time) from SANT Reporting Station
Clear Clear  
Wind Chill: 86°   Ceiling: Unl
Heat Index: 86°   Visibility: 5mi
Dew Point: 59°   Wind: 5mph
Humidity: 40%   Direction: 360°N
Pressure: 29.88"   Gusts: NA
Location:  28.54°S, 65.95°W
Report Text: SANT 250000Z 36004KT 8000 NSC 30/15 Q1012
Loading
Personal Weather Stations






























Interactive Weather Map New forecast layout! Learn more

10-Day Weather Forecast

Advertisements
Track Severe Weather on mobile